createdAt,value
2018-11-21T00:02:18.271Z,35.57
2018-11-21T00:04:49.453Z,35.30
2018-11-21T00:07:17.777Z,32.93
2018-11-21T00:09:49.991Z,34.10
2018-11-21T00:12:27.688Z,35.83
2018-11-21T00:14:56.164Z,31.63
2018-11-21T00:17:24.522Z,33.77
2018-11-21T00:19:53.128Z,34.73
2018-11-21T00:22:32.805Z,34.97
2018-11-21T00:25:01.226Z,35.23
2018-11-21T00:27:31.943Z,31.07
2018-11-21T00:30:00.426Z,31.83
2018-11-21T00:32:38.078Z,32.47
2018-11-21T00:35:08.145Z,34.07
2018-11-21T00:37:37.472Z,32.70
2018-11-21T00:40:09.199Z,33.93
2018-11-21T00:42:47.148Z,35.93
2018-11-21T00:45:17.890Z,38.10
2018-11-21T00:47:47.944Z,34.93
2018-11-21T00:50:15.049Z,35.63
2018-11-21T00:52:52.888Z,34.63
2018-11-21T00:55:21.600Z,36.03
2018-11-21T00:57:49.999Z,39.00
2018-11-21T01:00:18.733Z,33.20
2018-11-21T01:02:56.204Z,39.10
2018-11-21T01:05:24.476Z,34.63
2018-11-21T01:07:53.167Z,34.60
2018-11-21T01:10:22.620Z,36.30
2018-11-21T01:13:01.987Z,30.10
2018-11-21T01:15:33.041Z,34.63
2018-11-21T01:18:01.498Z,35.43
2018-11-21T01:20:32.839Z,30.00
2018-11-21T01:23:13.382Z,31.03
2018-11-21T01:25:41.905Z,32.60
2018-11-21T01:28:10.257Z,30.83
2018-11-21T01:30:38.837Z,30.27
2018-11-21T01:33:19.109Z,29.07
2018-11-21T01:35:47.461Z,30.47
2018-11-21T01:38:18.350Z,33.53
2018-11-21T01:40:46.848Z,31.50
2018-11-21T01:43:25.450Z,30.67
2018-11-21T01:45:53.981Z,31.37
2018-11-21T01:48:25.080Z,31.23
2018-11-21T01:50:54.118Z,32.57
2018-11-21T01:53:31.656Z,30.70
2018-11-21T01:56:00.523Z,28.57
2018-11-21T01:58:31.960Z,29.67
2018-11-21T02:01:02.787Z,31.23
2018-11-21T02:03:40.548Z,29.53
2018-11-21T02:06:09.200Z,29.90
2018-11-21T02:08:40.282Z,30.87
2018-11-21T02:11:09.009Z,25.37
2018-11-21T02:16:22.104Z,26.17
2018-11-21T02:18:49.191Z,25.27
2018-11-21T02:24:46.445Z,25.70
2018-11-21T02:27:15.016Z,25.40
2018-11-21T02:29:43.404Z,25.57
2018-11-21T02:32:22.078Z,26.67
2018-11-21T02:34:49.004Z,27.10
2018-11-21T02:37:17.287Z,29.37
2018-11-21T02:39:48.738Z,31.83
2018-11-21T02:45:02.278Z,30.20
2018-11-21T02:47:33.138Z,31.13
2018-11-21T02:50:01.465Z,31.20
2018-11-21T02:52:39.108Z,30.93
2018-11-21T02:55:07.877Z,32.80
2018-11-21T02:57:36.847Z,36.73
2018-11-21T03:00:09.983Z,35.43
2018-11-21T03:02:47.860Z,36.77
2018-11-21T03:05:19.255Z,33.33
2018-11-21T03:07:51.458Z,35.20
2018-11-21T03:10:20.857Z,35.77
2018-11-21T03:12:58.465Z,32.93
2018-11-21T03:15:26.864Z,32.23
2018-11-21T03:17:55.397Z,29.97
2018-11-21T03:20:23.754Z,30.53
2018-11-21T03:23:04.427Z,29.33
2018-11-21T03:25:32.755Z,29.03
2018-11-21T03:28:01.354Z,28.83
2018-11-21T03:30:30.028Z,25.97
2018-11-21T03:33:07.391Z,27.03
2018-11-21T03:35:35.782Z,29.00
2018-11-21T03:38:03.984Z,29.10
2018-11-21T03:40:32.270Z,30.97
2018-11-21T03:43:22.049Z,26.73
2018-11-21T03:45:50.315Z,27.47
2018-11-21T03:48:18.604Z,26.17
2018-11-21T03:50:46.862Z,28.37
2018-11-21T03:53:24.264Z,24.70
2018-11-21T03:55:52.861Z,27.13
2018-11-21T03:58:21.305Z,26.50
2018-11-21T04:00:49.542Z,26.47
2018-11-21T04:03:26.924Z,25.87
2018-11-21T04:05:55.569Z,25.90
2018-11-21T04:08:23.917Z,23.03
2018-11-21T04:10:52.285Z,24.37
2018-11-21T04:13:29.728Z,24.00
2018-11-21T04:16:01.384Z,25.97
2018-11-21T04:18:29.747Z,30.77
2018-11-21T04:20:58.012Z,23.97
2018-11-21T04:23:35.195Z,23.77
2018-11-21T04:26:03.516Z,26.63
2018-11-21T04:28:31.853Z,22.90
2018-11-21T04:31:02.099Z,23.63
2018-11-21T04:33:39.772Z,24.03
2018-11-21T04:36:11.957Z,25.03
2018-11-21T04:38:40.206Z,27.00
2018-11-21T04:41:08.686Z,27.47
2018-11-21T04:43:46.429Z,26.57
2018-11-21T04:46:14.977Z,23.63
2018-11-21T04:48:43.248Z,23.87
2018-11-21T04:51:11.876Z,26.50
2018-11-21T04:53:49.496Z,24.57
2018-11-21T04:56:17.760Z,22.83
2018-11-21T04:58:46.280Z,24.67
2018-11-21T05:01:17.058Z,28.03
2018-11-21T05:06:29.345Z,25.77
2018-11-21T05:08:57.668Z,22.80
2018-11-21T05:11:26.007Z,29.60
2018-11-21T05:14:03.601Z,23.97
2018-11-21T05:16:32.127Z,27.23
2018-11-21T05:19:03.481Z,22.30
2018-11-21T05:21:31.761Z,23.53
2018-11-21T05:24:09.540Z,27.30
2018-11-21T05:26:40.645Z,24.30
2018-11-21T05:29:09.017Z,23.07
2018-11-21T05:31:37.608Z,23.80
2018-11-21T05:34:15.056Z,22.10
2018-11-21T05:36:44.531Z,24.50
2018-11-21T05:39:13.504Z,23.43
2018-11-21T05:41:41.752Z,21.77
2018-11-21T05:46:55.472Z,21.60
2018-11-21T05:49:23.769Z,21.77
2018-11-21T05:51:52.803Z,20.70
2018-11-21T05:54:32.544Z,22.13
2018-11-21T05:57:01.028Z,21.40
2018-11-21T05:59:30.115Z,19.90
2018-11-21T06:01:59.998Z,18.60
2018-11-21T06:07:00.876Z,18.43
2018-11-21T06:09:32.511Z,20.67
2018-11-21T06:12:04.472Z,18.27
2018-11-21T06:17:14.653Z,20.47
2018-11-21T06:19:41.731Z,19.57
2018-11-21T06:22:10.024Z,18.73
2018-11-21T06:24:47.596Z,19.67
2018-11-21T06:27:18.697Z,17.53
2018-11-21T06:29:46.948Z,16.97
2018-11-21T06:32:15.532Z,18.53
2018-11-21T06:34:53.357Z,20.37
2018-11-21T06:37:21.800Z,21.10
2018-11-21T06:39:50.210Z,20.30
2018-11-21T06:42:18.495Z,17.80
2018-11-21T06:45:09.331Z,18.77
2018-11-21T06:47:37.716Z,19.13
2018-11-21T06:50:06.919Z,20.33
2018-11-21T06:52:47.380Z,19.23
2018-11-21T06:55:18.825Z,20.03
2018-11-21T06:57:47.347Z,18.63
2018-11-21T07:00:18.382Z,19.30
2018-11-21T07:02:58.992Z,21.27
2018-11-21T07:05:27.276Z,17.90
2018-11-21T07:08:01.012Z,18.97
2018-11-21T07:10:29.525Z,19.00
2018-11-21T07:13:10.920Z,16.90
2018-11-21T07:15:35.453Z,19.43
2018-11-21T07:18:03.671Z,18.03
2018-11-21T07:20:31.941Z,17.03
2018-11-21T07:23:09.407Z,18.07
2018-11-21T07:25:40.601Z,16.80
2018-11-21T07:28:13.183Z,18.83
2018-11-21T07:30:42.190Z,19.63
2018-11-21T07:33:19.679Z,16.70
2018-11-21T07:35:47.918Z,17.77
2018-11-21T07:38:16.303Z,18.73
2018-11-21T07:40:45.537Z,18.23
2018-11-21T07:43:14.065Z,17.63
2018-11-21T07:45:42.347Z,17.57
2018-11-21T07:48:10.612Z,16.27
2018-11-21T07:50:39.028Z,16.50
2018-11-21T07:55:50.213Z,19.57
2018-11-21T07:58:20.693Z,16.50
2018-11-21T08:01:04.209Z,20.87
2018-11-21T08:03:52.528Z,19.33
2018-11-21T08:06:23.175Z,16.20
2018-11-21T08:09:30.616Z,15.87
2018-11-21T08:12:14.873Z,16.80
2018-11-21T08:15:20.439Z,16.90
2018-11-21T08:18:20.062Z,18.70
2018-11-21T08:21:00.684Z,14.80
2018-11-21T08:23:46.911Z,18.20
2018-11-21T08:26:42.704Z,16.43
2018-11-21T08:29:10.947Z,15.17
2018-11-21T08:31:39.299Z,15.13
2018-11-21T08:34:07.529Z,15.80
2018-11-21T08:39:18.528Z,16.57
2018-11-21T08:41:46.806Z,14.57
2018-11-21T08:44:15.238Z,15.13
2018-11-21T08:49:26.978Z,14.27
2018-11-21T08:51:55.230Z,14.60
2018-11-21T08:54:25.991Z,18.37
2018-11-21T08:57:04.222Z,15.53
2018-11-21T08:59:32.438Z,15.70
2018-11-21T09:02:00.866Z,17.10
2018-11-21T09:04:32.124Z,15.90
2018-11-21T09:07:09.455Z,13.67
2018-11-21T09:09:38.100Z,16.53
2018-11-21T09:12:08.714Z,14.70
2018-11-21T09:14:34.571Z,15.87
2018-11-21T09:17:11.877Z,15.07
2018-11-21T09:19:40.141Z,17.00
2018-11-21T09:22:11.362Z,13.73
2018-11-21T09:24:40.002Z,15.43
2018-11-21T09:27:17.760Z,16.97
2018-11-21T09:29:46.230Z,14.37
2018-11-21T09:32:14.454Z,16.80
2018-11-21T09:34:43.076Z,16.27
2018-11-21T09:37:20.285Z,14.67
2018-11-21T09:39:48.537Z,15.50
2018-11-21T09:42:16.893Z,14.40
2018-11-21T09:44:45.233Z,15.93
2018-11-21T09:47:35.533Z,16.70
2018-11-21T09:50:05.484Z,16.07
2018-11-21T09:52:33.956Z,16.03
2018-11-21T09:55:02.443Z,17.83
2018-11-21T09:57:39.841Z,16.33
2018-11-21T10:00:46.933Z,18.40
2018-11-21T10:03:19.523Z,15.83
2018-11-21T10:05:56.500Z,16.13
2018-11-21T10:08:56.920Z,16.33
2018-11-21T10:11:25.135Z,17.33
2018-11-21T10:13:53.407Z,15.90
2018-11-21T10:16:31.329Z,16.20
2018-11-21T10:18:59.947Z,17.03
2018-11-21T10:21:29.816Z,19.17
2018-11-21T10:23:58.017Z,14.83
2018-11-21T10:26:35.196Z,22.53
2018-11-21T10:29:03.448Z,16.67
2018-11-21T10:31:31.734Z,19.00
2018-11-21T10:33:59.992Z,17.33
2018-11-21T10:36:37.317Z,16.90
2018-11-21T10:39:08.381Z,17.27
2018-11-21T10:41:38.488Z,21.87
2018-11-21T10:44:07.934Z,18.77
2018-11-21T10:49:25.059Z,16.17
2018-11-21T10:51:56.022Z,20.20
2018-11-21T10:54:24.341Z,16.00
2018-11-21T10:57:01.723Z,16.27
2018-11-21T10:59:31.993Z,15.87
2018-11-21T11:02:17.995Z,17.07
2018-11-21T11:05:08.054Z,16.50
2018-11-21T11:08:03.563Z,14.13
2018-11-21T11:10:49.859Z,15.27
2018-11-21T11:13:36.029Z,16.70
2018-11-21T11:16:27.651Z,16.33
2018-11-21T11:22:22.560Z,16.10
2018-11-21T11:25:08.612Z,17.00
2018-11-21T11:31:02.679Z,14.50
2018-11-21T11:33:45.936Z,16.73
2018-11-21T11:36:32.284Z,16.80
2018-11-21T11:39:32.977Z,16.47
2018-11-21T11:42:22.941Z,17.77
2018-11-21T11:45:25.523Z,15.17
2018-11-21T11:48:23.075Z,14.30
2018-11-21T11:54:01.768Z,15.83
2018-11-21T11:59:54.668Z,14.23
2018-11-21T12:02:38.932Z,15.80
2018-11-21T12:05:33.170Z,13.83
2018-11-21T12:08:28.098Z,15.20
2018-11-21T12:11:10.769Z,16.03
2018-11-21T12:13:57.267Z,13.20
2018-11-21T12:17:02.484Z,15.37
2018-11-21T12:19:50.087Z,12.83
2018-11-21T12:22:25.323Z,14.60
2018-11-21T12:25:18.892Z,14.10
2018-11-21T12:27:55.731Z,13.97
2018-11-21T12:30:37.402Z,13.30
